Date,TemperatureHighF,TemperatureAvgF,TemperatureLowF,DewpointHighF,DewpointAvgF,DewpointLowF,HumidityHigh,HumidityAvg,HumidityLow,PressureMaxIn,PressureMinIn,WindSpeedMaxMPH,WindSpeedAvgMPH,GustSpeedMaxMPH,PrecipitationSumIn
2013-2-1,37.9,32.1,28.7,17.3,11.1,7.0,50,41,30,30.13,30.00,40,19,40,0.00
2013-2-2,47.1,36.2,26.1,8.9,4.1,-1.2,41,26,15,30.32,30.12,34,16,34,0.00
2013-2-3,49.4,38.5,24.2,3.6,-5.5,-14.9,39,16,7,30.23,29.80,31,13,31,0.00
2013-2-4,44.8,35.3,29.8,9.8,3.4,-1.9,36,26,15,29.96,29.76,34,18,34,0.00
2013-2-5,50.4,39.6,32.9,17.6,13.0,7.3,45,34,26,30.00,29.72,34,14,34,0.00
2013-2-6,44.6,36.7,26.0,27.3,17.1,8.2,82,46,32,30.05,29.65,21,8,21,0.00
2013-2-7,43.1,26.4,10.2,14.0,1.0,-18.5,81,40,7,30.35,30.03,22,6,22,0.00
2013-2-8,46.0,24.0,6.1,4.8,-4.4,-9.5,57,32,12,30.27,29.71,16,4,16,0.00
2013-2-9,34.6,21.4,9.9,22.4,9.9,-3.6,85,63,38,29.90,29.52,22,4,22,0.01
2013-2-10,28.2,20.8,13.3,12.1,4.8,-2.0,74,51,31,30.14,29.60,25,7,25,0.00
2013-2-11,24.7,13.2,3.7,14.5,6.5,-1.7,82,75,49,30.38,30.10,14,4,14,0.01
2013-2-12,37.8,23.8,15.2,4.8,-3.0,-16.2,48,31,18,30.33,30.01,28,13,28,0.00
2013-2-13,34.9,28.4,22.2,11.2,5.9,1.5,43,38,32,30.13,29.94,39,22,39,0.00
2013-2-14,36.0,23.2,11.4,16.8,9.3,4.1,79,57,27,30.40,29.99,28,8,28,0.00
2013-2-15,31.0,21.7,6.3,12.0,4.5,-1.0,81,51,27,30.52,30.21,34,11,34,0.00
2013-2-16,45.7,35.5,27.2,9.0,5.5,0.2,44,29,18,30.25,29.89,46,24,46,0.00
2013-2-17,49.1,36.6,23.5,10.0,-0.5,-10.3,42,22,11,29.88,29.48,36,16,36,0.00
2013-2-18,29.7,23.0,12.3,2.1,-3.8,-11.3,47,31,20,30.20,29.67,30,12,30,0.00
2013-2-19,44.1,20.6,9.2,-3.4,-11.1,-23.6,52,29,8,30.22,29.93,13,5,13,0.00
2013-2-20,38.8,25.5,16.7,16.6,12.0,5.6,86,61,27,29.85,29.67,16,7,16,0.00
2013-2-21,24.1,16.3,6.7,15.7,11.0,1.8,84,80,70,30.07,29.68,13,4,13,0.06
2013-2-22,30.4,21.7,6.3,16.1,3.7,-6.3,85,48,27,30.10,29.90,32,12,32,0.01
2013-2-23,37.0,26.0,19.2,18.2,7.4,-4.6,85,46,33,29.94,29.59,44,19,44,0.00
2013-2-24,22.7,17.8,1.8,17.9,11.2,-3.6,86,76,51,30.37,29.70,20,5,20,0.01
2013-2-25,38.0,18.4,-6.8,16.2,3.2,-13.2,80,55,22,30.47,29.76,20,4,20,0.03
2013-2-26,31.0,24.1,16.4,19.5,8.4,1.5,83,52,33,30.25,29.71,28,9,28,0.03
2013-2-27,30.6,22.9,11.9,2.2,-4.5,-11.9,52,30,17,30.49,30.25,28,12,28,0.00
2013-2-28,34.3,25.6,12.1,8.2,0.3,-6.8,47,33,24,30.40,30.19,37,18,37,0.00